createdAt,value
2022-11-03T00:00:04.923Z,50.877171
2022-11-03T00:01:03.746Z,50.877129
2022-11-03T00:02:03.885Z,50.877148
2022-11-03T00:03:04.090Z,50.877148
2022-11-03T00:04:03.691Z,50.877148
2022-11-03T00:05:03.678Z,50.877148
2022-11-03T00:06:03.734Z,50.877148
2022-11-03T00:07:03.650Z,50.877148
2022-11-03T00:08:03.682Z,50.877148
2022-11-03T00:09:03.704Z,50.877148
2022-11-03T00:10:03.674Z,50.877148
2022-11-03T00:11:03.687Z,50.877373
2022-11-03T00:12:03.617Z,50.877354
2022-11-03T00:13:03.977Z,50.877399
2022-11-03T00:14:03.614Z,50.877361
2022-11-03T00:15:03.572Z,50.877403
2022-11-03T00:16:03.572Z,50.877346
2022-11-03T00:17:03.559Z,50.877361
2022-11-03T00:18:03.556Z,50.877327
2022-11-03T00:19:03.550Z,50.877289
2022-11-03T00:20:03.540Z,50.877289
2022-11-03T00:21:03.539Z,50.877304
2022-11-03T00:22:03.528Z,50.877270
2022-11-03T00:23:03.834Z,50.877266
2022-11-03T00:24:03.488Z,50.877216
2022-11-03T00:25:03.478Z,50.877216
2022-11-03T00:26:03.479Z,50.877213
2022-11-03T00:27:03.480Z,50.877197
2022-11-03T00:29:04.466Z,50.877182
2022-11-03T00:30:03.419Z,50.877205
2022-11-03T00:31:03.424Z,50.877163
2022-11-03T00:32:03.421Z,50.877190
2022-11-03T00:33:03.594Z,50.877178
2022-11-03T00:34:03.412Z,50.877186
2022-11-03T00:35:03.383Z,50.877193
2022-11-03T00:36:03.387Z,50.877201
2022-11-03T00:37:03.406Z,50.877171
2022-11-03T00:38:03.408Z,50.877171
2022-11-03T00:39:03.369Z,50.877167
2022-11-03T00:40:03.348Z,50.877155
2022-11-03T00:41:03.324Z,50.877171
2022-11-03T00:42:03.327Z,50.877171
2022-11-03T00:43:03.701Z,50.877163
2022-11-03T00:44:03.300Z,50.877178
2022-11-03T00:45:03.301Z,50.877163
2022-11-03T00:46:03.275Z,50.877178
2022-11-03T00:47:03.353Z,50.877178
2022-11-03T00:48:03.255Z,50.877182
2022-11-03T00:49:03.242Z,50.877197
2022-11-03T00:50:03.233Z,50.877151
2022-11-03T00:51:03.229Z,50.877178
2022-11-03T00:52:03.268Z,50.877193
2022-11-03T00:53:03.478Z,50.877167
2022-11-03T00:54:03.193Z,50.877209
2022-11-03T00:55:03.187Z,50.877193
2022-11-03T00:56:03.170Z,50.877163
2022-11-03T00:57:03.192Z,50.877193
2022-11-03T00:58:03.158Z,50.877151
2022-11-03T00:59:03.152Z,50.877182
2022-11-03T01:00:03.151Z,50.877182
2022-11-03T01:01:03.265Z,50.877178
2022-11-03T01:02:03.257Z,50.877148
2022-11-03T01:03:03.367Z,50.877148
2022-11-03T01:04:03.134Z,50.877148
2022-11-03T01:05:03.092Z,50.877151
2022-11-03T01:06:03.084Z,50.877144
2022-11-03T01:07:03.090Z,50.877140
2022-11-03T01:08:03.078Z,50.877155
2022-11-03T01:09:03.082Z,50.877155
2022-11-03T01:10:03.043Z,50.877182
2022-11-03T01:11:03.047Z,50.877167
2022-11-03T01:12:03.038Z,50.877102
2022-11-03T01:13:03.162Z,50.877064
2022-11-03T01:14:03.001Z,50.877132
2022-11-03T01:15:04.033Z,50.877174
2022-11-03T01:16:02.993Z,50.877186
2022-11-03T01:17:02.983Z,50.877201
2022-11-03T01:18:03.021Z,50.877193
2022-11-03T01:19:02.967Z,50.877201
2022-11-03T01:20:02.962Z,50.877205
2022-11-03T01:21:02.934Z,50.877201
2022-11-03T01:22:06.411Z,50.877216
2022-11-03T01:23:03.101Z,50.877220
2022-11-03T01:24:02.908Z,50.877209
2022-11-03T01:25:02.919Z,50.877201
2022-11-03T01:26:02.890Z,50.877209
2022-11-03T01:27:02.890Z,50.877216
2022-11-03T01:28:05.855Z,50.877220
2022-11-03T01:29:02.903Z,50.877205
2022-11-03T01:30:02.876Z,50.877209
2022-11-03T01:31:02.836Z,50.877209
2022-11-03T01:32:02.844Z,50.877216
2022-11-03T01:33:02.943Z,50.877228
2022-11-03T01:34:02.810Z,50.877209
2022-11-03T01:35:02.799Z,50.877224
2022-11-03T01:36:02.786Z,50.877220
2022-11-03T01:37:02.762Z,50.877216
2022-11-03T01:38:02.807Z,50.877193
2022-11-03T01:39:03.751Z,50.877213
2022-11-03T01:40:02.750Z,50.877224
2022-11-03T01:41:02.734Z,50.877224
2022-11-03T01:42:02.728Z,50.877224
2022-11-03T01:43:02.803Z,50.877205
2022-11-03T01:44:02.760Z,50.877213
2022-11-03T01:45:02.722Z,50.877205
2022-11-03T01:46:02.691Z,50.877232
2022-11-03T01:47:02.681Z,50.877224
2022-11-03T01:48:02.717Z,50.877232
2022-11-03T01:49:02.650Z,50.877243
2022-11-03T01:50:03.666Z,50.877235
2022-11-03T01:51:02.659Z,50.877232
2022-11-03T01:52:02.637Z,50.877243
2022-11-03T01:53:02.647Z,50.877232
2022-11-03T01:54:02.615Z,50.877232
2022-11-03T01:55:02.622Z,50.877239
2022-11-03T01:56:02.588Z,50.877220
2022-11-03T01:57:02.629Z,50.877243
2022-11-03T01:58:02.607Z,50.877254
2022-11-03T01:59:02.592Z,50.877232
2022-11-03T02:00:02.621Z,50.877232
2022-11-03T02:01:02.631Z,50.877235
2022-11-03T02:02:02.648Z,50.877235
2022-11-03T02:03:02.553Z,50.877232
2022-11-03T02:04:02.559Z,50.877243
2022-11-03T02:05:02.506Z,50.877254
2022-11-03T02:06:02.499Z,50.877243
2022-11-03T02:07:02.493Z,50.877243
2022-11-03T02:08:02.540Z,50.877243
2022-11-03T02:09:02.489Z,50.877235
2022-11-03T02:10:02.514Z,50.877235
2022-11-03T02:11:02.527Z,50.877232
2022-11-03T02:12:02.439Z,50.877262
2022-11-03T02:13:02.430Z,50.877274
2022-11-03T02:14:02.465Z,50.877293
2022-11-03T02:15:02.410Z,50.877239
2022-11-03T02:16:02.399Z,50.877247
2022-11-03T02:17:02.393Z,50.877247
2022-11-03T02:18:02.381Z,50.877209
2022-11-03T02:19:02.368Z,50.877232
2022-11-03T02:20:02.359Z,50.877216
2022-11-03T02:21:02.386Z,50.877258
2022-11-03T02:22:02.350Z,50.877243
2022-11-03T02:23:02.341Z,50.877216
2022-11-03T02:24:02.330Z,50.877232
2022-11-03T02:25:02.312Z,50.877251
2022-11-03T02:26:02.321Z,50.877281
2022-11-03T02:27:02.311Z,50.877247
2022-11-03T02:28:02.280Z,50.877243
2022-11-03T02:29:34.173Z,50.877270
2022-11-03T02:30:02.265Z,50.877262
2022-11-03T02:31:02.270Z,50.877262
2022-11-03T02:32:02.240Z,50.877258
2022-11-03T02:33:02.246Z,50.877266
2022-11-03T02:34:02.223Z,50.877289
2022-11-03T02:35:02.221Z,50.877254
2022-11-03T02:36:02.226Z,50.877251
2022-11-03T02:37:02.218Z,50.877232
2022-11-03T02:38:02.203Z,50.877274
2022-11-03T02:39:02.198Z,50.877274
2022-11-03T02:40:02.173Z,50.877220
2022-11-03T02:41:02.162Z,50.877213
2022-11-03T02:42:02.180Z,50.877190
2022-11-03T02:43:02.164Z,50.877205
2022-11-03T02:44:02.148Z,50.877220
2022-11-03T02:45:02.137Z,50.877209
2022-11-03T02:46:02.122Z,50.877193
2022-11-03T02:47:02.141Z,50.877209
2022-11-03T02:48:02.088Z,50.877224
2022-11-03T02:49:02.107Z,50.877220
2022-11-03T02:50:02.081Z,50.877213
2022-11-03T02:51:02.061Z,50.877213
2022-11-03T02:52:02.049Z,50.877213
2022-11-03T02:53:02.093Z,50.877228
2022-11-03T02:54:02.051Z,50.877232
2022-11-03T02:55:02.054Z,50.877216
2022-11-03T02:56:02.012Z,50.877220
2022-11-03T02:57:02.017Z,50.877186
2022-11-03T02:58:02.044Z,50.877178
2022-11-03T02:59:01.997Z,50.877174
2022-11-03T03:00:01.989Z,50.877197
2022-11-03T03:01:02.028Z,50.877209
2022-11-03T03:02:02.083Z,50.877209
2022-11-03T03:03:01.973Z,50.877209
2022-11-03T03:04:01.958Z,50.877205
2022-11-03T03:05:01.949Z,50.877193
2022-11-03T03:06:01.916Z,50.877228
2022-11-03T03:07:01.914Z,50.877235
2022-11-03T03:08:01.890Z,50.877220
2022-11-03T03:09:01.881Z,50.877228
2022-11-03T03:10:01.910Z,50.877209
2022-11-03T03:11:01.858Z,50.877209
2022-11-03T03:12:01.878Z,50.877178
2022-11-03T03:13:01.857Z,50.877178
2022-11-03T03:14:01.866Z,50.877182
2022-11-03T03:15:01.848Z,50.877209
2022-11-03T03:16:01.865Z,50.877228
2022-11-03T03:17:01.806Z,50.877224
2022-11-03T03:18:01.810Z,50.877186
2022-11-03T03:19:01.795Z,50.877151
2022-11-03T03:20:01.815Z,50.877182
2022-11-03T03:21:01.780Z,50.877178
2022-11-03T03:22:01.785Z,50.877186
2022-11-03T03:23:05.029Z,50.877159
2022-11-03T03:24:01.745Z,50.877151
2022-11-03T03:25:01.727Z,50.877171
2022-11-03T03:26:01.728Z,50.877197
2022-11-03T03:27:01.725Z,50.877197
2022-11-03T03:28:01.718Z,50.877178
2022-11-03T03:29:01.721Z,50.877182
2022-11-03T03:30:01.688Z,50.877178
2022-11-03T03:31:01.682Z,50.877197
2022-11-03T03:32:01.703Z,50.877205
2022-11-03T03:33:01.698Z,50.877182
2022-11-03T03:34:04.857Z,50.877213
2022-11-03T03:35:02.639Z,50.877182
2022-11-03T03:36:01.699Z,50.877205
2022-11-03T03:37:01.613Z,50.877178
2022-11-03T03:38:01.630Z,50.877167
2022-11-03T03:39:01.600Z,50.877151
2022-11-03T03:40:01.587Z,50.877155
2022-11-03T03:41:03.440Z,50.877190
2022-11-03T03:42:01.569Z,50.877171
2022-11-03T03:43:01.558Z,50.877190
2022-11-03T03:44:01.575Z,50.877178
2022-11-03T03:45:01.545Z,50.877171
2022-11-03T03:46:01.535Z,50.877209
2022-11-03T03:47:01.524Z,50.877201
2022-11-03T03:48:01.512Z,50.877182
2022-11-03T03:49:01.516Z,50.877148
2022-11-03T03:50:01.538Z,50.877155
2022-11-03T03:51:01.488Z,50.877193
2022-11-03T03:52:01.482Z,50.877171
2022-11-03T03:53:01.462Z,50.877197
2022-11-03T03:54:01.447Z,50.877209
2022-11-03T03:55:01.461Z,50.877174
2022-11-03T03:56:01.421Z,50.877163
2022-11-03T03:57:01.421Z,50.877163
2022-11-03T03:58:01.403Z,50.877129
2022-11-03T03:59:01.392Z,50.877209
2022-11-03T04:00:01.400Z,50.877201
2022-11-03T04:01:01.413Z,50.877232
2022-11-03T04:02:01.489Z,50.877228
2022-11-03T04:03:01.403Z,50.877178
2022-11-03T04:04:01.378Z,50.877163
2022-11-03T04:05:02.372Z,50.877132
2022-11-03T04:06:01.355Z,50.877174
2022-11-03T04:07:01.328Z,50.877201
2022-11-03T04:08:01.324Z,50.877228
2022-11-03T04:09:01.299Z,50.877178
2022-11-03T04:10:01.313Z,50.877182
2022-11-03T04:11:01.284Z,50.877167
2022-11-03T04:12:01.282Z,50.877163
2022-11-03T04:13:01.283Z,50.877163
2022-11-03T04:14:01.253Z,50.877159
2022-11-03T04:15:01.256Z,50.877151
2022-11-03T04:16:01.253Z,50.877186
2022-11-03T04:17:01.233Z,50.877197
2022-11-03T04:18:01.232Z,50.877178
2022-11-03T04:19:01.221Z,50.877163
2022-11-03T04:20:01.188Z,50.877178
2022-11-03T04:21:01.213Z,50.877140
2022-11-03T04:22:01.199Z,50.877167
2022-11-03T04:23:01.207Z,50.877182
2022-11-03T04:24:01.173Z,50.877182
2022-11-03T04:25:01.143Z,50.877132
2022-11-03T04:26:01.223Z,50.877159
2022-11-03T04:27:01.143Z,50.877186
2022-11-03T04:28:01.135Z,50.877182
2022-11-03T04:29:01.120Z,50.877167
2022-11-03T04:30:01.127Z,50.877182
2022-11-03T04:31:01.092Z,50.877193
2022-11-03T04:32:01.088Z,50.877186
2022-11-03T04:33:01.085Z,50.877171
2022-11-03T04:34:01.083Z,50.877197
2022-11-03T04:35:01.054Z,50.877190
2022-11-03T04:36:01.038Z,50.877186
2022-11-03T04:37:01.028Z,50.877155
2022-11-03T04:38:01.058Z,50.877193
2022-11-03T04:39:01.017Z,50.877155
2022-11-03T04:40:01.009Z,50.877186
2022-11-03T04:41:00.996Z,50.877190
2022-11-03T04:42:01.018Z,50.877171
2022-11-03T04:43:01.047Z,50.877193
2022-11-03T04:44:00.975Z,50.877182
2022-11-03T04:45:00.949Z,50.877140
2022-11-03T04:46:00.954Z,50.877171
2022-11-03T04:47:00.946Z,50.877174
2022-11-03T04:48:00.923Z,50.877213
2022-11-03T04:49:00.923Z,50.877186
2022-11-03T04:50:00.913Z,50.877186
2022-11-03T04:51:00.900Z,50.877205
2022-11-03T04:52:00.919Z,50.877186
2022-11-03T04:53:00.881Z,50.877163
2022-11-03T04:54:00.865Z,50.877151
2022-11-03T04:55:00.873Z,50.877167
2022-11-03T04:56:06.117Z,50.877129
2022-11-03T04:57:02.938Z,50.877178
2022-11-03T04:58:00.833Z,50.877048
2022-11-03T04:59:00.904Z,50.877132
2022-11-03T05:00:00.807Z,50.877190
2022-11-03T05:01:00.893Z,50.877171
2022-11-03T05:02:00.996Z,50.877110
2022-11-03T05:03:00.806Z,50.877151
2022-11-03T05:04:00.794Z,50.877144
2022-11-03T05:05:00.769Z,50.877163
2022-11-03T05:06:00.753Z,50.877148
2022-11-03T05:07:00.757Z,50.877167
2022-11-03T05:08:00.746Z,50.877110
2022-11-03T05:09:00.744Z,50.877098
2022-11-03T05:10:00.716Z,50.877144
2022-11-03T05:11:00.704Z,50.877079
2022-11-03T05:12:00.727Z,50.877136
2022-11-03T05:13:00.682Z,50.877178
2022-11-03T05:14:00.700Z,50.877205
2022-11-03T05:15:00.670Z,50.877155
2022-11-03T05:16:00.665Z,50.877151
2022-11-03T05:17:00.658Z,50.877163
2022-11-03T05:18:00.649Z,50.877178
2022-11-03T05:19:00.638Z,50.877174
2022-11-03T05:20:00.618Z,50.877144
2022-11-03T05:21:00.667Z,50.877167
2022-11-03T05:22:00.594Z,50.877159
2022-11-03T05:23:00.606Z,50.877140
2022-11-03T05:24:00.690Z,50.877087
2022-11-03T05:25:00.596Z,50.877075
2022-11-03T05:26:00.584Z,50.877190
2022-11-03T05:27:00.554Z,50.877197
2022-11-03T05:28:00.542Z,50.877132
2022-11-03T05:29:00.531Z,50.877102
2022-11-03T05:30:01.093Z,50.877228
2022-11-03T05:31:00.521Z,50.877140
2022-11-03T05:32:00.542Z,50.877117
2022-11-03T05:33:00.499Z,50.877151
2022-11-03T05:34:00.511Z,50.877216
2022-11-03T05:35:00.515Z,50.877209
2022-11-03T05:36:00.474Z,50.877293
2022-11-03T05:37:00.486Z,50.877281
2022-11-03T05:38:00.461Z,50.877197
2022-11-03T05:39:00.453Z,50.877251
2022-11-03T05:40:00.447Z,50.877251
2022-11-03T05:41:00.418Z,50.877251
2022-11-03T05:42:00.426Z,50.877331
2022-11-03T05:43:00.414Z,50.877213
2022-11-03T05:44:00.393Z,50.877213
2022-11-03T05:45:00.393Z,50.877266
2022-11-03T05:46:00.407Z,50.877266
2022-11-03T05:47:03.162Z,50.877266
2022-11-03T05:48:01.350Z,50.877266
2022-11-03T05:49:00.430Z,50.877293
2022-11-03T05:50:00.416Z,50.877293
2022-11-03T05:51:00.337Z,50.877335
2022-11-03T05:52:00.857Z,50.877335
2022-11-03T05:53:00.341Z,50.877319
2022-11-03T05:54:00.295Z,50.877293
2022-11-03T05:55:00.287Z,50.877304
2022-11-03T05:56:00.267Z,50.877346
2022-11-03T05:57:00.255Z,50.877327
2022-11-03T05:58:00.300Z,50.877396
2022-11-03T05:59:00.264Z,50.877380
2022-11-03T06:00:00.266Z,50.877182
2022-11-03T06:01:00.234Z,50.877216
2022-11-03T06:02:00.447Z,50.877235
2022-11-03T06:03:00.391Z,50.877213
2022-11-03T06:04:00.189Z,50.877155
2022-11-03T06:05:00.187Z,50.877151
2022-11-03T06:06:00.246Z,50.877144
2022-11-03T06:07:00.165Z,50.877144
2022-11-03T06:08:00.161Z,50.877213
2022-11-03T06:09:00.153Z,50.877186
2022-11-03T06:10:00.142Z,50.877190
2022-11-03T06:11:00.139Z,50.877136
2022-11-03T06:12:00.109Z,50.877186
2022-11-03T06:13:00.118Z,50.877174
2022-11-03T06:14:00.157Z,50.877182
2022-11-03T06:15:00.085Z,50.877155
2022-11-03T06:16:00.083Z,50.877163
2022-11-03T06:17:00.052Z,50.877178
2022-11-03T06:18:00.071Z,50.877171
2022-11-03T06:19:00.064Z,50.877132
2022-11-03T06:20:00.048Z,50.877125
2022-11-03T06:21:00.010Z,50.877148
2022-11-03T06:22:00.045Z,50.877151
2022-11-03T06:23:00.015Z,50.877159
2022-11-03T06:24:00.004Z,50.877163
2022-11-03T06:24:59.975Z,50.877186
2022-11-03T06:25:59.970Z,50.877186
2022-11-03T06:26:59.980Z,50.877186
2022-11-03T06:27:59.949Z,50.877182
2022-11-03T06:28:59.985Z,50.877216
2022-11-03T06:29:59.946Z,50.877186
2022-11-03T06:30:59.923Z,50.877193
2022-11-03T06:31:59.911Z,50.877163
2022-11-03T06:32:59.911Z,50.877182
2022-11-03T06:33:59.977Z,50.877193
2022-11-03T06:34:59.885Z,50.877186
2022-11-03T06:35:59.889Z,50.877209
2022-11-03T06:36:59.863Z,50.877251
2022-11-03T06:37:59.890Z,50.877201
2022-11-03T06:38:59.886Z,50.877182
2022-11-03T06:39:59.843Z,50.877193
2022-11-03T06:40:59.834Z,50.877182
2022-11-03T06:41:59.829Z,50.877193
2022-11-03T06:42:59.820Z,50.877213
2022-11-03T06:43:59.814Z,50.877213
2022-11-03T06:44:59.817Z,50.877140
2022-11-03T06:45:59.776Z,50.877163
2022-11-03T06:46:59.876Z,50.877193
2022-11-03T06:47:59.772Z,50.877274
2022-11-03T06:48:59.773Z,50.877220
2022-11-03T06:49:59.774Z,50.877232
2022-11-03T06:50:59.751Z,50.877213
2022-11-03T06:51:59.729Z,50.877174
2022-11-03T06:52:59.714Z,50.877213
2022-11-03T06:53:59.710Z,50.877140
2022-11-03T06:54:59.734Z,50.877186
2022-11-03T06:55:59.708Z,50.877277
2022-11-03T06:56:59.682Z,50.877258
2022-11-03T06:57:59.700Z,50.877174
2022-11-03T06:58:59.693Z,50.877182
2022-11-03T07:00:19.939Z,50.877178
2022-11-03T07:01:03.709Z,50.877205
2022-11-03T07:02:00.707Z,50.877232
2022-11-03T07:02:59.630Z,50.877213
2022-11-03T07:03:59.634Z,50.877171
2022-11-03T07:04:59.602Z,50.877136
2022-11-03T07:05:59.596Z,50.877144
2022-11-03T07:06:59.585Z,50.877174
2022-11-03T07:07:59.631Z,50.877098
2022-11-03T07:08:59.560Z,50.877144
2022-11-03T07:09:59.580Z,50.877171
2022-11-03T07:10:59.545Z,50.877190
2022-11-03T07:11:59.546Z,50.877209
2022-11-03T07:13:03.013Z,50.877167
2022-11-03T07:14:00.537Z,50.877129
2022-11-03T07:14:59.565Z,50.877205
2022-11-03T07:15:59.498Z,50.877182
2022-11-03T07:16:59.496Z,50.877220
2022-11-03T07:17:59.471Z,50.877193
2022-11-03T07:18:59.587Z,50.877197
2022-11-03T07:19:59.507Z,50.877167
2022-11-03T07:20:59.460Z,50.877182
2022-11-03T07:21:59.463Z,50.877205
2022-11-03T07:22:59.445Z,50.877186
2022-11-03T07:23:59.412Z,50.877213
2022-11-03T07:24:59.415Z,50.877193
2022-11-03T07:25:59.416Z,50.877186
2022-11-03T07:26:59.446Z,50.877186
2022-11-03T07:27:59.402Z,50.877182
2022-11-03T07:28:59.373Z,50.877186
2022-11-03T07:29:59.385Z,50.877243
2022-11-03T07:30:59.357Z,50.877220
2022-11-03T07:31:59.341Z,50.877239
2022-11-03T07:32:59.340Z,50.877190
2022-11-03T07:33:59.322Z,50.877209
2022-11-03T07:34:59.331Z,50.877209
2022-11-03T07:36:16.130Z,50.877201
2022-11-03T07:37:01.347Z,50.877197
2022-11-03T07:37:59.271Z,50.877213
2022-11-03T07:38:59.263Z,50.877197
2022-11-03T07:39:59.297Z,50.877163
2022-11-03T07:40:59.279Z,50.877144
2022-11-03T07:41:59.253Z,50.877151
2022-11-03T07:42:59.230Z,50.877216
2022-11-03T07:43:59.253Z,50.877201
2022-11-03T07:44:59.206Z,50.877174
2022-11-03T07:45:59.277Z,50.877159
2022-11-03T07:46:59.196Z,50.877209
2022-11-03T07:48:01.840Z,50.877262
2022-11-03T07:49:01.176Z,50.877224
2022-11-03T07:49:59.168Z,50.877213
2022-11-03T07:50:59.164Z,50.877205
2022-11-03T07:51:59.151Z,50.877190
2022-11-03T07:52:59.147Z,50.877216
2022-11-03T07:53:59.139Z,50.877209
2022-11-03T07:54:59.105Z,50.877193
2022-11-03T07:55:59.202Z,50.877178
2022-11-03T07:56:59.109Z,50.877197
2022-11-03T07:57:59.086Z,50.877209
2022-11-03T07:58:59.071Z,50.877209
2022-11-03T07:59:59.150Z,50.877178
2022-11-03T08:00:59.061Z,50.877178
2022-11-03T08:01:59.294Z,50.877201
2022-11-03T08:02:59.060Z,50.877159
2022-11-03T08:03:59.050Z,50.877178
2022-11-03T08:04:59.023Z,50.877224
2022-11-03T08:05:58.993Z,50.877155
2022-11-03T08:06:59.014Z,50.877224
2022-11-03T08:07:58.984Z,50.877197
2022-11-03T08:08:59.010Z,50.877197
2022-11-03T08:09:58.961Z,50.877197
2022-11-03T08:10:59.046Z,50.877193
2022-11-03T08:11:58.954Z,50.877197
2022-11-03T08:12:58.957Z,50.877190
2022-11-03T08:13:58.928Z,50.877224
2022-11-03T08:14:58.930Z,50.877277
2022-11-03T08:15:58.903Z,50.877247
2022-11-03T08:16:58.892Z,50.877258
2022-11-03T08:17:58.914Z,50.877224
2022-11-03T08:18:58.892Z,50.877171
2022-11-03T08:19:58.877Z,50.877205
2022-11-03T08:20:59.855Z,50.877232
2022-11-03T08:21:58.846Z,50.877251
2022-11-03T08:23:23.970Z,50.877251
2022-11-03T08:24:00.856Z,50.877197
2022-11-03T08:24:58.827Z,50.877190
2022-11-03T08:25:58.817Z,50.877232
2022-11-03T08:26:58.830Z,50.877220
2022-11-03T08:27:58.782Z,50.877201
2022-11-03T08:29:13.191Z,50.877216
2022-11-03T08:29:58.775Z,50.877171
2022-11-03T08:31:01.893Z,50.877197
2022-11-03T08:31:59.772Z,50.877197
2022-11-03T08:32:58.736Z,50.877186
2022-11-03T08:33:58.791Z,50.877209
2022-11-03T08:34:58.711Z,50.877186
2022-11-03T08:35:58.705Z,50.877201
2022-11-03T08:36:58.730Z,50.877132
2022-11-03T08:37:58.726Z,50.877129
2022-11-03T08:38:58.692Z,50.877193
2022-11-03T08:39:58.671Z,50.877197
2022-11-03T08:40:58.743Z,50.877266
2022-11-03T08:41:58.679Z,50.877178
2022-11-03T08:42:58.640Z,50.877213
2022-11-03T08:43:58.661Z,50.877197
2022-11-03T08:44:58.631Z,50.877178
2022-11-03T08:46:06.623Z,50.877213
2022-11-03T08:47:00.610Z,50.877159
2022-11-03T08:47:58.591Z,50.877201
2022-11-03T08:48:58.594Z,50.877182
2022-11-03T08:49:58.606Z,50.877117
2022-11-03T08:50:58.739Z,50.877132
2022-11-03T08:51:58.574Z,50.877132
2022-11-03T08:52:58.549Z,50.877132
2022-11-03T08:53:58.546Z,50.877132
2022-11-03T08:54:58.551Z,50.877132
2022-11-03T08:55:58.521Z,50.877132
2022-11-03T08:56:58.517Z,50.877148
2022-11-03T08:57:58.525Z,50.877193
2022-11-03T08:58:58.506Z,50.877213
2022-11-03T08:59:58.479Z,50.877247
2022-11-03T09:00:58.476Z,50.877121
2022-11-03T09:01:58.543Z,50.877167
2022-11-03T09:02:58.514Z,50.877140
2022-11-03T09:03:58.575Z,50.877132
2022-11-03T09:04:58.417Z,50.877155
2022-11-03T09:05:58.424Z,50.877232
2022-11-03T09:06:58.428Z,50.877209
2022-11-03T09:11:00.765Z,50.877174
2022-11-03T09:11:58.423Z,50.877224
2022-11-03T09:12:58.354Z,50.877228
2022-11-03T09:13:58.385Z,50.877224
2022-11-03T09:14:58.420Z,50.877239
2022-11-03T09:15:58.330Z,50.877232
2022-11-03T09:16:58.370Z,50.877190
2022-11-03T09:17:58.352Z,50.877213
2022-11-03T09:18:58.282Z,50.877239
2022-11-03T09:19:58.290Z,50.877262
2022-11-03T09:20:58.279Z,50.877262
2022-11-03T09:21:58.375Z,50.877262
2022-11-03T09:22:58.263Z,50.877254
2022-11-03T09:23:58.248Z,50.877247
2022-11-03T09:24:58.293Z,50.877254
2022-11-03T09:25:58.213Z,50.877254
2022-11-03T09:27:02.159Z,50.877239
2022-11-03T09:27:59.200Z,50.877247
2022-11-03T09:28:58.253Z,50.877243
2022-11-03T09:30:12.752Z,50.877232
2022-11-03T09:31:00.184Z,50.877220
2022-11-03T09:31:58.195Z,50.877232
2022-11-03T09:32:58.145Z,50.877247
2022-11-03T09:33:58.160Z,50.877243
2022-11-03T09:34:58.127Z,50.877251
2022-11-03T09:35:58.119Z,50.877243
2022-11-03T09:36:58.112Z,50.877251
2022-11-03T09:37:58.099Z,50.877251
2022-11-03T09:38:58.112Z,50.877251
2022-11-03T09:39:58.085Z,50.877254
2022-11-03T09:40:58.072Z,50.877209
2022-11-03T09:41:59.344Z,50.877228
2022-11-03T09:42:59.087Z,50.877247
2022-11-03T09:43:58.097Z,50.877216
2022-11-03T09:44:58.034Z,50.877209
2022-11-03T09:45:58.073Z,50.877220
2022-11-03T09:46:58.629Z,50.877220
2022-11-03T09:47:58.991Z,50.877205
2022-11-03T09:48:58.017Z,50.877213
2022-11-03T09:49:57.988Z,50.877213
2022-11-03T09:50:57.978Z,50.877228
2022-11-03T09:51:57.963Z,50.877209
2022-11-03T09:52:58.031Z,50.877247
2022-11-03T09:53:57.972Z,50.877258
2022-11-03T09:54:57.931Z,50.877247
2022-11-03T09:55:57.924Z,50.877289
2022-11-03T09:56:57.911Z,50.877251
2022-11-03T09:57:57.893Z,50.877247
2022-11-03T09:58:57.944Z,50.877232
2022-11-03T09:59:57.934Z,50.877224
2022-11-03T10:00:57.990Z,50.877247
2022-11-03T10:01:58.002Z,50.877251
2022-11-03T10:02:57.845Z,50.877243
2022-11-03T10:03:58.861Z,50.877262
2022-11-03T10:04:57.870Z,50.877270
2022-11-03T10:05:57.825Z,50.877262
2022-11-03T10:06:57.829Z,50.877262
2022-11-03T10:07:57.849Z,50.877262
2022-11-03T10:08:57.796Z,50.877254
2022-11-03T10:09:57.795Z,50.877235
2022-11-03T10:10:57.781Z,50.877239
2022-11-03T10:11:57.834Z,50.877213
2022-11-03T10:12:57.804Z,50.877213
2022-11-03T10:13:57.747Z,50.877235
2022-11-03T10:14:57.736Z,50.877216
2022-11-03T10:15:57.729Z,50.877239
2022-11-03T10:16:57.729Z,50.877235
2022-11-03T10:17:57.716Z,50.877251
2022-11-03T10:18:57.696Z,50.877247
2022-11-03T10:19:57.685Z,50.877247
2022-11-03T10:20:57.693Z,50.877247
2022-11-03T10:21:57.667Z,50.877243
2022-11-03T10:22:57.691Z,50.877239
2022-11-03T10:23:57.684Z,50.877254
2022-11-03T10:24:57.645Z,50.877239
2022-11-03T10:25:57.626Z,50.877239
2022-11-03T10:26:57.610Z,50.877224
2022-11-03T10:27:57.636Z,50.877235
2022-11-03T10:28:57.619Z,50.877247
2022-11-03T10:29:58.114Z,50.877262
2022-11-03T10:31:11.392Z,50.877228
2022-11-03T10:31:59.561Z,50.877239
2022-11-03T10:32:57.577Z,50.877243
2022-11-03T10:33:57.545Z,50.877247
2022-11-03T10:34:57.544Z,50.877251
2022-11-03T10:35:57.523Z,50.877285
2022-11-03T10:36:57.518Z,50.877266
2022-11-03T10:37:57.537Z,50.877289
2022-11-03T10:38:57.493Z,50.877151
2022-11-03T10:39:57.491Z,50.877174
2022-11-03T10:40:57.480Z,50.877277
2022-11-03T10:41:57.494Z,50.877277
2022-11-03T10:42:57.481Z,50.877319
2022-11-03T10:43:57.455Z,50.877239
2022-11-03T10:44:57.439Z,50.877171
2022-11-03T10:45:57.431Z,50.877239
2022-11-03T10:46:57.439Z,50.877232
2022-11-03T10:48:00.543Z,50.877216
2022-11-03T10:48:58.428Z,50.877285
2022-11-03T10:49:57.419Z,50.877228
2022-11-03T10:50:57.375Z,50.877174
2022-11-03T10:51:57.388Z,50.877270
2022-11-03T10:52:57.373Z,50.877228
2022-11-03T10:53:57.355Z,50.877148
2022-11-03T10:54:57.359Z,50.877171
2022-11-03T10:55:57.341Z,50.877304
2022-11-03T10:56:57.323Z,50.877323
2022-11-03T10:57:57.315Z,50.877228
2022-11-03T10:59:57.317Z,50.877300
2022-11-03T11:00:57.342Z,50.877419
2022-11-03T11:01:57.373Z,50.877274
2022-11-03T11:02:57.267Z,50.877113
2022-11-03T11:03:57.294Z,50.877144
2022-11-03T11:04:57.273Z,50.877308
2022-11-03T11:05:57.248Z,50.877495
2022-11-03T11:06:57.230Z,50.877533
2022-11-03T11:07:57.243Z,50.877533
2022-11-03T11:08:59.921Z,50.877533
2022-11-03T11:09:57.211Z,50.877533
2022-11-03T11:10:57.243Z,50.877533
2022-11-03T11:11:57.176Z,50.877533
2022-11-03T11:12:57.207Z,50.877533
2022-11-03T11:13:57.244Z,50.877533
2022-11-03T11:14:57.153Z,50.877533
2022-11-03T11:15:57.147Z,50.877533
2022-11-03T11:16:57.125Z,50.877533
2022-11-03T11:17:57.176Z,50.877533
2022-11-03T11:18:57.136Z,50.877533
2022-11-03T11:19:57.102Z,50.877533
2022-11-03T11:20:57.088Z,50.877533
2022-11-03T11:21:57.072Z,50.877533
2022-11-03T11:22:57.068Z,50.877533
2022-11-03T11:23:57.070Z,50.877533
2022-11-03T11:24:57.046Z,50.877022
2022-11-03T11:25:57.055Z,50.877022
2022-11-03T11:26:57.055Z,50.877022
2022-11-03T11:27:58.267Z,50.877022
2022-11-03T11:28:58.024Z,50.877022